createdAt,value
2022-08-22T00:01:37.147Z,13.13
2022-08-22T00:02:45.362Z,16.24
2022-08-22T00:02:52.599Z,17.12
2022-08-22T00:03:06.692Z,14.03
2022-08-22T00:04:14.664Z,13.11
2022-08-22T00:07:13.929Z,12.94
2022-08-22T00:10:21.004Z,13.07
2022-08-22T00:12:55.208Z,13.09
2022-08-22T00:15:42.078Z,13.03
2022-08-22T00:18:12.918Z,13.10
2022-08-22T00:20:43.646Z,13.19
2022-08-22T00:23:28.601Z,13.20
2022-08-22T00:26:03.528Z,13.17
2022-08-22T00:28:36.999Z,13.23
2022-08-22T00:31:22.421Z,13.46
2022-08-22T00:34:04.865Z,13.46
2022-08-22T00:36:52.549Z,13.58
2022-08-22T00:39:35.631Z,13.84
2022-08-22T00:42:29.509Z,13.91
2022-08-22T00:45:17.202Z,13.97
2022-08-22T00:48:02.109Z,14.03
2022-08-22T00:50:55.476Z,14.10
2022-08-22T00:53:40.295Z,14.00
2022-08-22T00:56:19.092Z,14.12
2022-08-22T00:59:23.283Z,14.16
2022-08-22T01:02:08.488Z,14.17
2022-08-22T01:05:02.256Z,14.04
2022-08-22T01:07:37.842Z,13.93
2022-08-22T01:10:17.084Z,13.85
2022-08-22T01:12:56.441Z,13.78
2022-08-22T01:15:28.726Z,13.72
2022-08-22T01:18:32.724Z,13.78
2022-08-22T01:21:32.984Z,13.72
2022-08-22T01:24:08.697Z,13.69
2022-08-22T01:27:09.363Z,13.61
2022-08-22T01:29:55.987Z,13.58
2022-08-22T01:32:31.617Z,13.67
2022-08-22T01:35:29.910Z,13.74
2022-08-22T01:38:18.101Z,13.82
2022-08-22T01:41:10.526Z,13.85
2022-08-22T01:44:00.609Z,13.88
2022-08-22T01:46:49.037Z,13.92
2022-08-22T01:49:32.561Z,13.81
2022-08-22T01:52:09.661Z,13.91
2022-08-22T01:54:55.038Z,13.91
2022-08-22T01:57:23.468Z,13.86
2022-08-22T01:59:54.729Z,13.75
2022-08-22T02:02:50.485Z,13.76
2022-08-22T02:05:16.963Z,13.78
2022-08-22T02:07:56.415Z,13.79
2022-08-22T02:10:41.343Z,13.73
2022-08-22T02:13:13.961Z,13.78
2022-08-22T02:15:40.473Z,13.87
2022-08-22T02:18:06.987Z,13.92
2022-08-22T02:20:48.769Z,13.90
2022-08-22T02:23:46.296Z,13.85
2022-08-22T02:26:50.453Z,13.91
2022-08-22T02:29:31.636Z,13.88
2022-08-22T02:32:06.833Z,14.03
2022-08-22T02:34:56.727Z,14.01
2022-08-22T02:37:50.426Z,14.05
2022-08-22T02:40:21.689Z,14.08
2022-08-22T02:43:15.405Z,14.09
2022-08-22T02:45:47.027Z,14.01
2022-08-22T02:48:39.376Z,13.91
2022-08-22T02:51:33.258Z,13.89
2022-08-22T02:54:16.986Z,13.80
2022-08-22T02:57:00.780Z,13.77
2022-08-22T03:00:31.352Z,13.63
2022-08-22T03:03:03.286Z,13.56
2022-08-22T03:05:44.048Z,13.52
2022-08-22T03:08:31.978Z,13.59
2022-08-22T03:11:06.294Z,13.47
2022-08-22T03:14:12.195Z,13.52
2022-08-22T03:16:49.369Z,13.50
2022-08-22T03:19:24.909Z,13.42
2022-08-22T03:22:03.144Z,13.39
2022-08-22T03:24:29.643Z,13.45
2022-08-22T03:27:32.395Z,13.45
2022-08-22T03:30:10.160Z,13.47
2022-08-22T03:32:59.071Z,13.49
2022-08-22T03:35:37.255Z,13.51
2022-08-22T03:38:26.978Z,13.44
2022-08-22T03:41:20.255Z,13.60
2022-08-22T03:43:49.836Z,13.52
2022-08-22T03:46:53.518Z,13.59
2022-08-22T03:49:38.353Z,13.58
2022-08-22T03:52:30.757Z,13.45
2022-08-22T03:55:16.033Z,13.63
2022-08-22T03:58:13.616Z,13.48
2022-08-22T04:01:13.542Z,13.32
2022-08-22T04:03:52.339Z,13.29
2022-08-22T04:06:45.994Z,13.32
2022-08-22T04:09:17.788Z,13.31
2022-08-22T04:12:21.906Z,13.44
2022-08-22T04:15:07.143Z,13.30
2022-08-22T04:17:39.562Z,13.25
2022-08-22T04:20:30.587Z,13.38
2022-08-22T04:23:27.603Z,13.36
2022-08-22T04:26:29.006Z,13.43
2022-08-22T04:29:06.478Z,13.37
2022-08-22T04:31:42.404Z,13.40
2022-08-22T04:34:24.985Z,13.44
2022-08-22T04:37:14.676Z,13.56
2022-08-22T04:39:59.740Z,13.62
2022-08-22T04:42:38.067Z,13.73
2022-08-22T04:45:10.556Z,13.84
2022-08-22T04:47:54.305Z,13.83
2022-08-22T04:50:49.666Z,13.86
2022-08-22T04:53:48.486Z,13.91
2022-08-22T04:56:28.125Z,14.00
2022-08-22T04:59:03.580Z,13.96
2022-08-22T05:01:42.843Z,14.00
2022-08-22T05:04:15.278Z,14.00
2022-08-22T05:06:49.496Z,14.04
2022-08-22T05:09:35.906Z,14.06
2022-08-22T05:12:12.008Z,14.09
2022-08-22T05:14:51.327Z,14.16
2022-08-22T05:17:25.474Z,14.19
2022-08-22T05:19:56.782Z,14.22
2022-08-22T05:22:33.891Z,14.38
2022-08-22T05:25:06.676Z,14.38
2022-08-22T05:27:42.094Z,14.45
2022-08-22T05:30:16.238Z,14.60
2022-08-22T05:32:52.261Z,14.66
2022-08-22T05:35:29.212Z,14.78
2022-08-22T05:37:56.677Z,14.83
2022-08-22T05:40:30.422Z,14.97
2022-08-22T05:42:58.260Z,15.42
2022-08-22T05:45:27.145Z,15.93
2022-08-22T05:48:08.846Z,16.28
2022-08-22T05:50:40.428Z,16.59
2022-08-22T05:53:24.089Z,16.85
2022-08-22T05:56:02.932Z,16.86
2022-08-22T05:58:51.413Z,17.11
2022-08-22T06:01:35.538Z,17.96
2022-08-22T06:04:08.629Z,18.51
2022-08-22T06:06:57.460Z,18.81
2022-08-22T06:09:34.675Z,18.93
2022-08-22T06:12:16.490Z,19.21
2022-08-22T06:15:12.351Z,19.18
2022-08-22T06:17:47.165Z,19.14
2022-08-22T06:20:20.479Z,19.36
2022-08-22T06:22:55.045Z,19.61
2022-08-22T06:25:34.960Z,19.86
2022-08-22T06:28:07.654Z,20.43
2022-08-22T06:30:36.895Z,20.80
2022-08-22T06:33:12.671Z,21.81
2022-08-22T06:36:06.327Z,22.82
2022-08-22T06:39:08.167Z,23.14
2022-08-22T06:41:51.972Z,23.43
2022-08-22T06:44:24.005Z,24.10
2022-08-22T06:46:54.439Z,23.20
2022-08-22T06:49:24.745Z,23.02
2022-08-22T06:51:51.989Z,23.64
2022-08-22T06:54:23.834Z,22.63
2022-08-22T06:56:53.369Z,22.21
2022-08-22T06:59:27.589Z,22.14
2022-08-22T07:02:04.081Z,22.85
2022-08-22T07:04:31.598Z,23.41
2022-08-22T07:07:01.320Z,24.25
2022-08-22T07:09:34.664Z,25.74
2022-08-22T07:12:24.158Z,25.51
2022-08-22T07:14:52.067Z,26.19
2022-08-22T07:17:25.718Z,27.08
2022-08-22T07:20:26.975Z,26.92
2022-08-22T07:23:10.157Z,26.14
2022-08-22T07:25:49.211Z,25.51
2022-08-22T07:28:37.013Z,25.32
2022-08-22T07:31:26.400Z,24.77
2022-08-22T07:34:23.582Z,24.25
2022-08-22T07:37:00.534Z,24.07
2022-08-22T07:39:47.816Z,25.23
2022-08-22T07:42:21.582Z,24.89
2022-08-22T07:45:02.996Z,24.47
2022-08-22T07:47:50.607Z,24.78
2022-08-22T07:50:22.768Z,24.96
2022-08-22T07:52:51.748Z,25.83
2022-08-22T07:55:23.310Z,25.68
2022-08-22T07:58:04.728Z,25.67
2022-08-22T08:00:32.477Z,25.69
2022-08-22T08:03:04.598Z,26.32
2022-08-22T08:05:34.473Z,26.93
2022-08-22T08:08:09.093Z,30.15
2022-08-22T08:10:42.367Z,31.42
2022-08-22T08:13:13.508Z,30.92
2022-08-22T08:15:43.037Z,29.12
2022-08-22T08:18:19.084Z,28.67
2022-08-22T08:20:49.404Z,29.14
2022-08-22T08:23:22.249Z,30.86
2022-08-22T08:25:56.974Z,30.99
2022-08-22T08:28:37.562Z,30.02
2022-08-22T08:31:25.120Z,30.12
2022-08-22T08:33:58.088Z,30.19
2022-08-22T08:36:44.763Z,29.76
2022-08-22T08:39:21.278Z,28.71
2022-08-22T08:42:03.376Z,29.79
2022-08-22T08:44:30.460Z,29.90
2022-08-22T08:47:23.251Z,31.83
2022-08-22T08:49:50.559Z,32.82
2022-08-22T08:52:20.014Z,34.46
2022-08-22T08:54:55.054Z,35.18
2022-08-22T08:57:58.689Z,34.99
2022-08-22T09:00:42.917Z,35.62
2022-08-22T09:03:29.813Z,36.11
2022-08-22T09:06:07.199Z,35.66
2022-08-22T09:08:55.651Z,35.27
2022-08-22T09:11:42.381Z,35.31
2022-08-22T09:14:27.766Z,36.39
2022-08-22T09:17:09.309Z,34.41
2022-08-22T09:19:45.605Z,34.85
2022-08-22T09:22:22.190Z,33.32
2022-08-22T09:24:54.351Z,34.92
2022-08-22T09:27:35.961Z,34.28
2022-08-22T09:30:07.629Z,33.88
2022-08-22T09:32:58.380Z,33.80
2022-08-22T09:35:30.874Z,32.68
2022-08-22T09:37:57.573Z,31.85
2022-08-22T09:40:29.259Z,31.06
2022-08-22T09:43:02.369Z,32.52
2022-08-22T09:45:32.783Z,34.56
2022-08-22T09:48:17.627Z,34.39
2022-08-22T09:51:04.723Z,35.85
2022-08-22T09:53:55.601Z,36.74
2022-08-22T09:56:35.519Z,37.88
2022-08-22T09:59:04.880Z,39.11
2022-08-22T10:01:42.184Z,36.64
2022-08-22T10:04:19.466Z,36.63
2022-08-22T10:06:55.839Z,37.75
2022-08-22T10:09:44.869Z,35.93
2022-08-22T10:12:16.699Z,38.14
2022-08-22T10:15:09.022Z,37.18
2022-08-22T10:17:41.118Z,36.86
2022-08-22T10:20:28.351Z,33.54
2022-08-22T10:23:03.799Z,31.47
2022-08-22T10:25:34.695Z,31.47
2022-08-22T10:28:10.479Z,30.10
2022-08-22T10:30:55.980Z,32.06
2022-08-22T10:33:25.516Z,32.47
2022-08-22T10:36:11.698Z,31.85
2022-08-22T10:38:46.913Z,33.21
2022-08-22T10:41:32.551Z,35.25
2022-08-22T10:44:21.628Z,34.85
2022-08-22T10:47:06.977Z,35.13
2022-08-22T10:49:52.266Z,36.01
2022-08-22T10:52:24.898Z,35.89
2022-08-22T10:55:12.301Z,36.28
2022-08-22T10:57:38.978Z,36.95
2022-08-22T11:00:11.871Z,37.89
2022-08-22T11:02:38.640Z,37.28
2022-08-22T11:05:08.766Z,35.69
2022-08-22T11:07:44.562Z,34.72
2022-08-22T11:10:15.199Z,33.90
2022-08-22T11:12:49.713Z,32.80
2022-08-22T11:15:24.201Z,31.56
2022-08-22T11:18:08.001Z,31.15
2022-08-22T11:20:48.653Z,30.17
2022-08-22T11:23:16.416Z,30.22
2022-08-22T11:25:58.109Z,29.96
2022-08-22T11:28:42.820Z,29.95
2022-08-22T11:31:19.931Z,30.27
2022-08-22T11:33:58.489Z,29.81
2022-08-22T11:36:31.161Z,29.68
2022-08-22T11:39:01.186Z,29.33
2022-08-22T11:41:44.596Z,28.48
2022-08-22T11:44:22.319Z,28.51
2022-08-22T11:46:57.114Z,28.91
2022-08-22T11:49:32.922Z,28.44
2022-08-22T11:52:05.623Z,28.56
2022-08-22T11:54:37.383Z,28.55
2022-08-22T11:57:08.626Z,29.14
2022-08-22T11:59:53.949Z,28.32
2022-08-22T12:02:29.693Z,28.34
2022-08-22T12:05:13.748Z,27.86
2022-08-22T12:07:55.427Z,28.59
2022-08-22T12:10:27.939Z,29.55
2022-08-22T12:13:04.245Z,29.81
2022-08-22T12:15:36.716Z,30.35
2022-08-22T12:18:29.987Z,30.12
2022-08-22T12:21:11.854Z,30.21
2022-08-22T12:23:48.922Z,30.18
2022-08-22T12:26:18.734Z,29.15
2022-08-22T12:29:01.331Z,29.50
2022-08-22T12:31:33.618Z,29.63
2022-08-22T12:34:12.994Z,29.76
2022-08-22T12:36:51.311Z,29.55
2022-08-22T12:39:23.272Z,28.68
2022-08-22T12:42:09.273Z,28.54
2022-08-22T12:44:45.420Z,27.93
2022-08-22T12:47:25.186Z,28.20
2022-08-22T12:50:07.504Z,27.73
2022-08-22T12:52:33.933Z,27.42
2022-08-22T12:55:06.535Z,27.43
2022-08-22T12:57:54.135Z,27.17
2022-08-22T13:00:23.085Z,27.84
2022-08-22T13:02:54.568Z,28.19
2022-08-22T13:05:23.582Z,28.40
2022-08-22T13:07:56.017Z,27.88
2022-08-22T13:10:32.333Z,27.23
2022-08-22T13:13:12.817Z,27.72
2022-08-22T13:15:56.845Z,27.99
2022-08-22T13:21:31.511Z,26.84
2022-08-22T13:24:52.515Z,26.92
2022-08-22T13:27:51.254Z,27.11
2022-08-22T13:30:22.408Z,27.38
2022-08-22T13:32:51.171Z,27.75
2022-08-22T13:35:23.892Z,27.68
2022-08-22T13:37:54.716Z,27.47
2022-08-22T13:40:24.091Z,27.50
2022-08-22T13:43:01.381Z,27.67
2022-08-22T13:45:28.886Z,27.61
2022-08-22T13:48:03.861Z,27.55
2022-08-22T13:50:37.113Z,27.03
2022-08-22T13:53:28.003Z,27.26
2022-08-22T13:55:59.318Z,26.69
2022-08-22T13:58:38.929Z,26.68
2022-08-22T14:01:05.549Z,27.02
2022-08-22T14:03:40.042Z,26.94
2022-08-22T14:06:37.128Z,27.15
2022-08-22T14:09:12.244Z,26.88
2022-08-22T14:11:43.745Z,26.12
2022-08-22T14:14:10.682Z,26.25
2022-08-22T14:16:45.446Z,26.29
2022-08-22T14:19:15.793Z,26.37
2022-08-22T14:21:42.236Z,26.36
2022-08-22T14:24:31.159Z,26.68
2022-08-22T14:27:05.696Z,26.53
2022-08-22T14:29:51.936Z,26.37
2022-08-22T14:32:22.776Z,26.17
2022-08-22T14:35:23.313Z,26.22
2022-08-22T14:38:17.085Z,26.71
2022-08-22T14:40:46.246Z,26.65
2022-08-22T14:43:22.208Z,26.97
2022-08-22T14:45:57.279Z,27.28
2022-08-22T14:48:33.174Z,27.37
2022-08-22T14:51:10.400Z,27.04
2022-08-22T14:53:38.625Z,26.79
2022-08-22T14:56:13.405Z,26.87
2022-08-22T14:59:06.719Z,26.48
2022-08-22T15:01:35.396Z,25.92
2022-08-22T15:04:06.077Z,25.96
2022-08-22T15:06:35.959Z,26.08
2022-08-22T15:09:23.707Z,25.74
2022-08-22T15:11:50.612Z,26.29
2022-08-22T15:14:52.166Z,26.24
2022-08-22T15:17:51.412Z,26.04
2022-08-22T15:20:27.900Z,25.84
2022-08-22T15:22:55.620Z,25.58
2022-08-22T15:25:25.522Z,25.42
2022-08-22T15:27:56.763Z,25.27
2022-08-22T15:30:44.537Z,24.66
2022-08-22T15:33:33.711Z,24.70
2022-08-22T15:36:19.935Z,24.51
2022-08-22T15:38:50.771Z,24.54
2022-08-22T15:41:24.441Z,24.53
2022-08-22T15:44:05.056Z,24.21
2022-08-22T15:46:43.611Z,24.29
2022-08-22T15:49:10.716Z,24.12
2022-08-22T15:51:40.409Z,24.12
2022-08-22T15:54:13.146Z,24.12
2022-08-22T15:56:53.562Z,23.88
2022-08-22T15:59:25.555Z,23.89
2022-08-22T16:01:54.527Z,23.75
2022-08-22T16:04:32.649Z,23.75
2022-08-22T16:07:01.305Z,23.55
2022-08-22T16:09:36.917Z,23.71
2022-08-22T16:12:06.367Z,23.63
2022-08-22T16:14:35.966Z,23.70
2022-08-22T16:17:08.115Z,23.31
2022-08-22T16:19:35.526Z,23.49
2022-08-22T16:22:05.221Z,23.48
2022-08-22T16:24:33.986Z,23.46
2022-08-22T16:27:24.668Z,23.18
2022-08-22T16:29:59.308Z,22.92
2022-08-22T16:32:28.317Z,22.86
2022-08-22T16:34:54.687Z,22.60
2022-08-22T16:37:27.199Z,22.41
2022-08-22T16:40:04.110Z,22.38
2022-08-22T16:42:37.958Z,22.42
2022-08-22T16:45:08.343Z,22.11
2022-08-22T16:47:40.223Z,22.08
2022-08-22T16:50:06.633Z,21.87
2022-08-22T16:52:51.985Z,21.73
2022-08-22T16:55:30.383Z,21.43
2022-08-22T16:58:06.066Z,21.59
2022-08-22T17:00:58.094Z,21.37
2022-08-22T17:03:34.017Z,21.19
2022-08-22T17:06:23.346Z,21.25
2022-08-22T17:12:45.425Z,21.04
2022-08-22T17:50:23.920Z,19.82
2022-08-22T17:53:02.055Z,19.70
2022-08-22T18:10:57.392Z,19.51
2022-08-22T18:36:49.518Z,18.69
2022-08-22T18:39:29.804Z,18.60
2022-08-22T18:42:11.664Z,18.59
2022-08-22T18:44:47.988Z,18.50
2022-08-22T18:54:06.842Z,18.28
2022-08-22T19:13:10.873Z,18.33
2022-08-22T19:15:20.190Z,18.01
2022-08-22T19:18:19.693Z,17.89
2022-08-22T19:32:44.113Z,17.73
2022-08-22T19:50:28.068Z,17.70
2022-08-22T20:07:15.008Z,17.75
2022-08-22T20:09:47.949Z,17.78
2022-08-22T20:12:29.595Z,17.64
2022-08-22T20:14:57.106Z,17.54
2022-08-22T20:20:58.270Z,17.34
2022-08-22T20:41:35.518Z,17.29
2022-08-22T20:44:22.487Z,17.23
2022-08-22T20:46:53.618Z,17.16
2022-08-22T20:49:23.957Z,17.19
2022-08-22T20:51:55.492Z,17.28
2022-08-22T20:54:24.185Z,17.27
2022-08-22T20:56:53.485Z,17.22
2022-08-22T20:59:20.187Z,17.19
2022-08-22T21:01:47.020Z,17.21
2022-08-22T21:04:15.770Z,17.24
2022-08-22T21:06:42.180Z,17.27
2022-08-22T21:09:31.889Z,17.16
2022-08-22T21:11:59.901Z,17.15
2022-08-22T21:14:27.133Z,17.18
2022-08-22T21:16:53.759Z,17.11
2022-08-22T21:19:24.052Z,17.07
2022-08-22T21:21:50.546Z,17.03
2022-08-22T21:24:17.032Z,17.09
2022-08-22T21:26:46.431Z,17.13
2022-08-22T21:29:26.625Z,17.14
2022-08-22T21:32:15.489Z,17.24
2022-08-22T21:34:44.319Z,17.17
2022-08-22T21:37:18.171Z,17.16
2022-08-22T21:39:47.128Z,16.99
2022-08-22T21:42:30.413Z,16.95
2022-08-22T21:45:04.094Z,16.92
2022-08-22T21:47:35.811Z,16.94
2022-08-22T21:50:09.467Z,16.92
2022-08-22T21:52:37.269Z,16.95
2022-08-22T21:55:21.840Z,16.97
2022-08-22T21:58:13.629Z,16.95
2022-08-22T22:01:20.141Z,16.75
2022-08-22T22:03:51.419Z,16.83
2022-08-22T22:06:18.001Z,16.85
2022-08-22T22:08:46.808Z,16.93
2022-08-22T22:11:16.849Z,16.95
2022-08-22T22:16:52.953Z,16.83
2022-08-22T22:23:38.895Z,16.65
2022-08-22T22:29:04.083Z,16.56
2022-08-22T22:31:37.965Z,16.46
2022-08-22T22:34:35.738Z,16.44
2022-08-22T22:40:11.294Z,16.47
2022-08-22T22:53:33.755Z,16.21
2022-08-22T22:56:28.090Z,16.10
2022-08-22T23:02:58.716Z,15.94
2022-08-22T23:05:25.244Z,15.92
2022-08-22T23:07:51.693Z,15.93
2022-08-22T23:10:23.567Z,16.12
2022-08-22T23:12:50.076Z,16.10
2022-08-22T23:15:16.780Z,16.22
2022-08-22T23:17:43.723Z,16.24
2022-08-22T23:20:15.270Z,16.25
2022-08-22T23:22:44.973Z,15.97
2022-08-22T23:25:22.924Z,15.96
2022-08-22T23:28:05.661Z,15.97
2022-08-22T23:31:19.174Z,15.97
2022-08-22T23:34:14.612Z,16.05
2022-08-22T23:40:50.684Z,15.97
2022-08-22T23:43:19.273Z,16.08
2022-08-22T23:46:11.675Z,15.95
2022-08-22T23:48:40.774Z,15.95
